Time;durP1;ratioP1;P1;durP2;ratioP2;P2;SDS_P1;SDS_P2;PMS_P1;PMS_P2;Temp;Humidity;BMP_temperature;BMP_pressure;BME280_temperature;BME280_humidity;BME280_pressure;Samples;Min_cycle;Max_cycle;Signal;HPM_P1;HPM_P2
2021/11/16 00:01:10;;;;;;;40.35;25.60;;;11.30;99.90;;;;;;6182850;23;20008;-83
2021/11/16 00:03:36;;;;;;;40.22;24.83;;;11.30;99.90;;;;;;6182180;23;20007;-82
2021/11/16 00:06:02;;;;;;;33.97;22.38;;;11.30;99.90;;;;;;6182958;23;20025;-82
2021/11/16 00:08:28;;;;;;;40.67;25.67;;;11.30;99.90;;;;;;6182199;23;20029;-82
2021/11/16 00:10:54;;;;;;;44.80;26.13;;;11.20;99.90;;;;;;6181737;23;20040;-81
2021/11/16 00:13:20;;;;;;;44.17;26.20;;;11.20;99.90;;;;;;6184515;23;20510;-82
2021/11/16 00:15:47;;;;;;;38.25;25.77;;;11.20;99.90;;;;;;6183491;23;20005;-81
2021/11/16 00:18:16;;;;;;;41.70;25.75;;;11.20;99.90;;;;;;6183567;23;20131;-81
2021/11/16 00:20:43;;;;;;;44.95;25.05;;;11.20;99.90;;;;;;6183151;23;20443;-82
2021/11/16 00:23:18;;;;;;;40.55;26.20;;;11.30;99.90;;;;;;6182169;23;20388;-81
2021/11/16 00:25:46;;;;;;;42.05;25.33;;;11.20;99.90;;;;;;6181272;23;20041;-81
2021/11/16 00:28:12;;;;;;;42.70;24.92;;;11.20;99.90;;;;;;6182055;23;20005;-81
2021/11/16 00:30:39;;;;;;;38.20;25.17;;;11.30;99.90;;;;;;6180588;23;20062;-82
2021/11/16 00:33:05;;;;;;;34.35;23.88;;;11.20;99.90;;;;;;6183374;23;19997;-82
2021/11/16 00:35:31;;;;;;;39.60;24.55;;;11.30;99.90;;;;;;6181329;23;20004;-82
2021/11/16 00:37:57;;;;;;;34.65;22.38;;;11.30;99.90;;;;;;6183633;23;20100;-83
2021/11/16 00:40:23;;;;;;;33.13;20.73;;;11.30;99.90;;;;;;6182773;23;20045;-81
2021/11/16 00:42:50;;;;;;;41.63;24.55;;;11.30;99.90;;;;;;6182203;23;20424;-82
2021/11/16 00:45:17;;;;;;;37.42;24.48;;;11.30;99.90;;;;;;6182808;23;20077;-81
2021/11/16 00:47:43;;;;;;;43.80;25.00;;;11.30;99.90;;;;;;6183454;23;20435;-83
2021/11/16 00:50:10;;;;;;;36.50;23.30;;;11.20;99.90;;;;;;6182044;23;20072;-82
2021/11/16 00:52:36;;;;;;;31.08;18.95;;;11.20;99.90;;;;;;6183312;23;20067;-81
2021/11/16 00:55:02;;;;;;;37.20;23.88;;;11.20;99.90;;;;;;6182840;23;20433;-81
2021/11/16 00:57:27;;;;;;;37.35;25.45;;;11.20;99.90;;;;;;6181845;23;20009;-81
2021/11/16 00:59:53;;;;;;;37.78;24.40;;;11.20;99.90;;;;;;6182582;23;20013;-81
2021/11/16 01:02:19;;;;;;;35.03;24.05;;;11.20;99.90;;;;;;6182923;23;20004;-83
2021/11/16 01:04:49;;;;;;;39.15;24.02;;;11.10;99.90;;;;;;6181108;23;20009;-83
2021/11/16 01:07:16;;;;;;;39.20;21.52;;;11.10;99.90;;;;;;6181251;23;20425;-83
2021/11/16 01:09:43;;;;;;;35.75;25.27;;;11.10;99.90;;;;;;6181202;23;20005;-81
2021/11/16 01:12:09;;;;;;;37.53;25.13;;;11.10;99.90;;;;;;6183391;23;20001;-82
2021/11/16 01:14:35;;;;;;;46.38;26.38;;;11.10;99.90;;;;;;6183345;23;19997;-82
2021/11/16 01:17:02;;;;;;;34.17;20.60;;;11.10;99.90;;;;;;6181385;23;19998;-82
2021/11/16 01:19:27;;;;;;;41.78;25.45;;;11.00;99.90;;;;;;6182739;23;20024;-81
2021/11/16 01:21:53;;;;;;;34.25;23.63;;;11.10;99.90;;;;;;6182691;23;20001;-82
2021/11/16 01:24:19;;;;;;;40.65;25.02;;;11.10;99.90;;;;;;6183058;23;20009;-84
2021/11/16 01:26:46;;;;;;;34.28;23.58;;;11.00;99.90;;;;;;6182685;23;20001;-81
2021/11/16 01:29:13;;;;;;;37.38;22.27;;;11.10;99.90;;;;;;6183103;23;20048;-81
2021/11/16 01:31:39;;;;;;;38.60;24.42;;;11.00;99.90;;;;;;6182579;23;20039;-80
2021/11/16 01:34:08;;;;;;;41.08;25.58;;;11.10;99.90;;;;;;6181515;23;20332;-82
2021/11/16 01:36:34;;;;;;;40.53;24.85;;;11.10;99.90;;;;;;6182310;23;20012;-81
2021/11/16 01:39:00;;;;;;;30.73;19.65;;;11.10;99.90;;;;;;6181202;23;20025;-81
2021/11/16 01:41:30;;;;;;;40.05;23.88;;;11.10;99.90;;;;;;6182576;23;20044;-80
2021/11/16 01:43:56;;;;;;;40.35;27.50;;;11.10;99.90;;;;;;6181494;23;20433;-81
2021/11/16 01:46:23;;;;;;;35.70;24.70;;;11.00;99.90;;;;;;6182175;23;19998;-80
2021/11/16 01:48:52;;;;;;;34.83;22.48;;;11.00;99.90;;;;;;6181548;23;20020;-81
2021/11/16 01:51:21;;;;;;;38.97;25.17;;;11.00;99.90;;;;;;6180765;23;20001;-81
2021/11/16 01:53:53;;;;;;;38.33;22.70;;;11.00;99.90;;;;;;6183108;23;20475;-81
2021/11/16 01:56:19;;;;;;;35.33;23.98;;;11.00;99.90;;;;;;6180803;23;20056;-81
2021/11/16 01:58:45;;;;;;;36.92;24.75;;;11.00;99.90;;;;;;6182932;23;20037;-82
2021/11/16 02:01:11;;;;;;;33.65;25.15;;;11.00;99.90;;;;;;6180924;23;20060;-82
2021/11/16 02:03:37;;;;;;;37.78;24.77;;;11.00;99.90;;;;;;6181305;23;20005;-81
2021/11/16 02:06:30;;;;;;;33.08;22.77;;;11.00;99.90;;;;;;6180481;23;20336;-81
2021/11/16 02:08:58;;;;;;;34.95;23.55;;;11.00;99.90;;;;;;6182844;23;20059;-81
2021/11/16 02:11:25;;;;;;;35.95;24.05;;;11.00;99.90;;;;;;6182475;23;20376;-81
2021/11/16 02:13:51;;;;;;;35.58;22.13;;;11.00;99.90;;;;;;6181311;23;20031;-81
2021/11/16 02:16:17;;;;;;;33.05;21.25;;;10.90;99.90;;;;;;6182377;23;20441;-81
2021/11/16 02:18:43;;;;;;;35.08;24.10;;;11.00;99.90;;;;;;6184291;23;20009;-82
2021/11/16 02:21:10;;;;;;;31.40;22.27;;;11.00;99.90;;;;;;6182364;23;20352;-80
2021/11/16 02:23:38;;;;;;;34.95;22.10;;;11.00;99.90;;;;;;6184638;23;20056;-80
2021/11/16 02:26:05;;;;;;;39.42;21.90;;;11.00;99.90;;;;;;6183835;23;20140;-81
2021/11/16 02:28:31;;;;;;;32.22;22.95;;;11.00;99.90;;;;;;6184736;23;20005;-81
2021/11/16 02:30:57;;;;;;;34.05;23.70;;;11.00;99.90;;;;;;6183889;23;20025;-79
2021/11/16 02:33:23;;;;;;;32.85;22.85;;;11.00;99.90;;;;;;6183097;23;20028;-80
2021/11/16 02:35:49;;;;;;;33.13;22.77;;;10.90;99.90;;;;;;6183936;23;20416;-81
2021/11/16 02:38:15;;;;;;;35.30;24.20;;;10.90;99.90;;;;;;6184613;23;20036;-82
2021/11/16 02:40:42;;;;;;;36.95;25.17;;;11.00;99.90;;;;;;6184018;23;20025;-81
2021/11/16 02:43:08;;;;;;;30.58;23.40;;;10.90;99.90;;;;;;6184848;23;20020;-80
2021/11/16 02:45:34;;;;;;;36.65;25.85;;;11.00;99.90;;;;;;6182505;23;20394;-81
2021/11/16 02:48:11;;;;;;;34.65;24.15;;;11.00;99.90;;;;;;6184417;23;20001;-81
2021/11/16 02:50:48;;;;;;;40.40;26.20;;;11.10;99.90;;;;;;6183881;23;20005;-80
2021/11/16 02:53:15;;;;;;;36.70;24.27;;;11.10;99.90;;;;;;6184715;23;20008;-81
2021/11/16 02:55:41;;;;;;;32.58;24.25;;;11.10;99.90;;;;;;6182338;23;20371;-81
2021/11/16 02:58:08;;;;;;;34.78;22.95;;;11.20;99.90;;;;;;6182739;23;19997;-82
2021/11/16 03:00:35;;;;;;;41.30;25.27;;;11.10;99.90;;;;;;6182579;23;20004;-81
2021/11/16 03:03:01;;;;;;;39.45;26.23;;;11.20;99.90;;;;;;6182869;23;20001;-81
2021/11/16 03:05:36;;;;;;;37.10;25.45;;;11.20;99.90;;;;;;6183641;23;20425;-81
2021/11/16 03:08:12;;;;;;;35.45;25.58;;;11.20;99.90;;;;;;6184522;23;20076;-81
2021/11/16 03:10:38;;;;;;;36.45;24.77;;;11.20;99.90;;;;;;6183923;23;19997;-82
2021/11/16 03:13:04;;;;;;;34.17;24.40;;;11.20;99.90;;;;;;6182840;23;20016;-82
2021/11/16 03:15:30;;;;;;;34.67;24.27;;;11.20;99.90;;;;;;6183837;23;19998;-81
2021/11/16 03:17:55;;;;;;;34.53;25.67;;;11.20;99.90;;;;;;6182713;23;20059;-82
2021/11/16 03:20:21;;;;;;;41.33;28.13;;;11.20;99.90;;;;;;6183784;23;20047;-81
2021/11/16 03:22:53;;;;;;;36.20;25.10;;;11.10;99.90;;;;;;6184419;23;20004;-82
2021/11/16 03:25:23;;;;;;;37.63;26.35;;;11.10;99.90;;;;;;6183542;23;20016;-81
2021/11/16 03:27:56;;;;;;;39.95;25.88;;;11.10;99.90;;;;;;6184320;23;20032;-81
2021/11/16 03:30:23;;;;;;;39.22;26.58;;;11.20;99.90;;;;;;6182003;23;20012;-80
2021/11/16 03:32:49;;;;;;;41.10;26.38;;;11.20;99.90;;;;;;6184085;23;19997;-81
2021/11/16 03:35:15;;;;;;;36.55;26.45;;;11.20;99.90;;;;;;6183523;23;20004;-82
2021/11/16 03:37:46;;;;;;;37.45;27.23;;;11.20;99.90;;;;;;6184185;23;19993;-82
2021/11/16 03:40:13;;;;;;;38.70;27.88;;;11.20;99.90;;;;;;6181860;23;20028;-82
2021/11/16 03:42:43;;;;;;;35.55;23.92;;;11.10;99.90;;;;;;6184192;23;20001;-80
2021/11/16 03:45:10;;;;;;;35.97;25.25;;;11.10;99.90;;;;;;6181748;23;20008;-82
2021/11/16 03:47:37;;;;;;;42.60;27.77;;;11.00;99.90;;;;;;6182454;23;20001;-80
2021/11/16 03:50:05;;;;;;;35.35;22.98;;;11.00;99.90;;;;;;6183330;23;20028;-81
2021/11/16 03:52:35;;;;;;;38.85;27.95;;;10.90;99.90;;;;;;6183216;23;20012;-82
2021/11/16 03:55:02;;;;;;;37.55;25.63;;;11.00;99.90;;;;;;6183275;23;20008;-81
2021/11/16 03:57:29;;;;;;;37.28;26.90;;;10.90;99.90;;;;;;6183957;23;20001;-80
2021/11/16 03:59:54;;;;;;;43.47;29.38;;;10.90;99.90;;;;;;6181745;23;20467;-81
2021/11/16 04:02:21;;;;;;;41.55;28.40;;;10.90;99.90;;;;;;6181929;23;20004;-81
2021/11/16 04:04:50;;;;;;;41.80;28.95;;;10.90;99.90;;;;;;6183343;23;20064;-81
2021/11/16 04:07:16;;;;;;;42.05;28.20;;;10.90;99.90;;;;;;6183400;23;20001;-80
2021/11/16 04:09:43;;;;;;;41.25;27.02;;;10.90;99.90;;;;;;6181923;23;20332;-81
2021/11/16 04:12:09;;;;;;;42.47;28.70;;;10.80;99.90;;;;;;6181946;23;20012;-81
2021/11/16 04:14:35;;;;;;;42.55;29.13;;;10.90;99.90;;;;;;6182177;23;20009;-81
2021/11/16 04:17:01;;;;;;;47.72;30.85;;;10.80;99.90;;;;;;6183169;23;20029;-81
2021/11/16 04:19:27;;;;;;;42.33;27.52;;;10.80;99.90;;;;;;6182060;23;20067;-81
2021/11/16 04:21:52;;;;;;;35.38;23.92;;;10.90;99.90;;;;;;6183049;23;20028;-81
2021/11/16 04:24:18;;;;;;;43.45;28.58;;;10.90;99.90;;;;;;6182011;23;20001;-81
2021/11/16 04:26:44;;;;;;;52.08;31.45;;;11.00;99.90;;;;;;6181652;23;20029;-81
2021/11/16 04:29:10;;;;;;;40.58;27.33;;;11.00;99.90;;;;;;6183806;23;20079;-81
2021/11/16 04:31:35;;;;;;;39.40;28.50;;;10.90;99.90;;;;;;6182958;23;20039;-81
2021/11/16 04:34:07;;;;;;;37.80;27.77;;;10.90;99.90;;;;;;6183574;23;20456;-81
2021/11/16 04:36:34;;;;;;;47.45;28.63;;;10.90;99.90;;;;;;6182768;23;20005;-80
2021/11/16 04:38:59;;;;;;;41.67;29.13;;;10.80;99.90;;;;;;6183208;23;20100;-81
2021/11/16 04:41:25;;;;;;;42.83;28.92;;;10.80;99.90;;;;;;6181222;23;20059;-81
2021/11/16 04:43:51;;;;;;;38.78;25.75;;;10.80;99.90;;;;;;6181545;23;20009;-82
2021/11/16 04:46:20;;;;;;;43.58;29.92;;;10.80;99.90;;;;;;6181274;23;20064;-81
2021/11/16 04:59:35;;;;;;;40.53;28.27;;;10.90;99.90;;;;;;6183096;23;20041;-82
2021/11/16 05:04:45;;;;;;;39.45;27.65;;;10.90;99.90;;;;;;6182938;23;20451;-81
2021/11/16 05:07:18;;;;;;;40.72;28.48;;;10.90;99.90;;;;;;6182222;23;19997;-81
2021/11/16 05:09:50;;;;;;;37.85;27.45;;;10.90;99.90;;;;;;6182504;23;20001;-82
2021/11/16 05:12:16;;;;;;;40.00;28.00;;;11.00;99.90;;;;;;6183057;23;20059;-82
2021/11/16 05:14:42;;;;;;;42.53;27.52;;;10.90;99.90;;;;;;6180755;23;20001;-81
2021/11/16 05:17:08;;;;;;;41.28;26.83;;;10.90;99.90;;;;;;6183159;23;20000;-81
2021/11/16 05:19:34;;;;;;;42.80;26.45;;;11.00;99.90;;;;;;6182276;23;20013;-82
2021/11/16 05:21:59;;;;;;;34.38;24.30;;;11.00;99.90;;;;;;6182506;23;19997;-82
2021/11/16 05:24:25;;;;;;;34.85;24.60;;;11.00;99.90;;;;;;6183138;23;20009;-82
2021/11/16 05:26:52;;;;;;;39.20;27.25;;;11.10;99.90;;;;;;6181570;23;20005;-82
2021/11/16 05:29:18;;;;;;;38.08;26.30;;;11.20;99.90;;;;;;6182799;23;20001;-81
2021/11/16 05:31:44;;;;;;;40.42;27.23;;;11.20;99.90;;;;;;6180621;23;20005;-84
2021/11/16 05:34:10;;;;;;;35.50;26.73;;;11.20;99.90;;;;;;6181542;23;20314;-83
2021/11/16 05:36:36;;;;;;;36.78;25.20;;;11.20;99.90;;;;;;6180659;23;20029;-83
2021/11/16 05:39:04;;;;;;;41.00;27.17;;;11.30;99.90;;;;;;6181391;23;20025;-83
2021/11/16 05:41:30;;;;;;;37.92;26.98;;;11.30;99.90;;;;;;6181481;23;20059;-83
2021/11/16 05:43:55;;;;;;;37.28;26.90;;;11.30;99.90;;;;;;6182845;23;20080;-83
2021/11/16 05:46:22;;;;;;;32.83;24.67;;;11.30;99.90;;;;;;6180162;23;20016;-83
2021/11/16 05:48:50;;;;;;;33.65;24.27;;;11.40;99.90;;;;;;6182945;23;20033;-83
2021/11/16 05:51:17;;;;;;;38.03;28.60;;;11.40;99.90;;;;;;6184645;23;19997;-83
2021/11/16 05:53:46;;;;;;;34.05;27.08;;;11.40;99.90;;;;;;6183928;23;20012;-84
2021/11/16 05:56:12;;;;;;;38.80;26.27;;;11.40;99.90;;;;;;6183650;23;20001;-84
2021/11/16 05:58:41;;;;;;;41.50;26.48;;;11.40;99.90;;;;;;6183711;23;20013;-84
2021/11/16 06:01:08;;;;;;;34.92;23.45;;;11.40;99.90;;;;;;6187563;23;20059;-81
2021/11/16 06:03:34;;;;;;;41.22;28.67;;;11.40;99.90;;;;;;6185076;23;20082;-86
2021/11/16 06:05:59;;;;;;;36.60;27.48;;;11.40;99.90;;;;;;6181669;23;20104;-84
2021/11/16 06:08:27;;;;;;;33.13;24.63;;;11.50;99.90;;;;;;6183583;23;20011;-85
2021/11/16 06:10:56;;;;;;;37.78;26.55;;;11.50;99.90;;;;;;6181688;23;20012;-85
2021/11/16 06:13:22;;;;;;;34.55;23.90;;;11.50;99.90;;;;;;6183996;23;20009;-82
2021/11/16 06:15:48;;;;;;;37.25;25.63;;;11.50;99.90;;;;;;6192385;23;20004;-87
2021/11/16 06:18:14;;;;;;;37.40;25.60;;;11.50;99.90;;;;;;6184990;23;20021;-80
2021/11/16 06:20:42;;;;;;;36.45;27.17;;;11.40;99.90;;;;;;6182091;23;20016;-80
2021/11/16 06:23:11;;;;;;;39.92;26.58;;;11.50;99.90;;;;;;6182591;23;19997;-79
2021/11/16 06:25:38;;;;;;;34.90;23.83;;;11.50;99.90;;;;;;6182386;23;20005;-81
2021/11/16 06:28:04;;;;;;;29.80;22.13;;;11.50;99.90;;;;;;6180883;23;20036;-81
2021/11/16 06:30:29;;;;;;;39.22;26.23;;;11.50;99.90;;;;;;6180364;23;20005;-81
2021/11/16 06:32:55;;;;;;;38.78;26.77;;;11.60;99.90;;;;;;6181435;23;20012;-81
2021/11/16 06:35:21;;;;;;;37.00;25.17;;;11.50;99.90;;;;;;6182886;23;20320;-82
2021/11/16 06:37:48;;;;;;;33.78;24.63;;;11.60;99.90;;;;;;6185066;23;20004;-83
2021/11/16 06:40:16;;;;;;;35.65;24.35;;;11.60;99.90;;;;;;6185046;23;20057;-84
2021/11/16 06:42:42;;;;;;;34.47;24.85;;;11.60;99.90;;;;;;6185302;23;20007;-83
2021/11/16 06:45:08;;;;;;;36.17;25.67;;;11.60;99.90;;;;;;6184643;23;20448;-84
2021/11/16 06:47:34;;;;;;;33.88;22.92;;;11.60;99.90;;;;;;6183783;23;20051;-82
2021/11/16 06:50:00;;;;;;;37.67;25.67;;;11.60;99.90;;;;;;6182789;23;20005;-85
2021/11/16 06:52:30;;;;;;;33.65;25.33;;;11.70;99.90;;;;;;6185210;23;20001;-84
2021/11/16 06:54:55;;;;;;;37.47;26.52;;;11.70;99.90;;;;;;6182957;23;20029;-85
2021/11/16 06:57:26;;;;;;;35.08;25.20;;;11.70;99.90;;;;;;6184457;23;19997;-83
2021/11/16 06:59:52;;;;;;;39.65;26.33;;;11.80;99.90;;;;;;6184081;23;20005;-86
2021/11/16 07:02:24;;;;;;;38.20;27.15;;;11.80;99.90;;;;;;6184191;23;20458;-84
2021/11/16 07:04:50;;;;;;;34.92;25.40;;;11.80;99.90;;;;;;6183505;23;20036;-85
2021/11/16 07:07:15;;;;;;;35.15;25.58;;;11.80;99.90;;;;;;6182704;23;20344;-81
2021/11/16 07:09:43;;;;;;;42.35;26.90;;;11.80;99.90;;;;;;6184854;23;20024;-81
2021/11/16 07:12:12;;;;;;;33.90;24.83;;;11.80;99.90;;;;;;6184212;23;19989;-82
2021/11/16 07:14:39;;;;;;;39.65;26.85;;;11.80;99.90;;;;;;6181214;23;20017;-82
2021/11/16 07:17:10;;;;;;;34.65;23.77;;;11.90;99.90;;;;;;6178606;23;20144;-84
2021/11/16 07:19:41;;;;;;;35.23;25.37;;;11.90;99.90;;;;;;6181129;23;20008;-83
2021/11/16 07:22:31;;;;;;;36.17;25.90;;;11.90;99.90;;;;;;6179060;23;20062;-80
2021/11/16 07:25:05;;;;;;;32.35;25.25;;;11.90;99.90;;;;;;6169138;23;20543;-82
2021/11/16 07:27:41;;;;;;;40.13;27.05;;;12.00;99.90;;;;;;6180196;23;20005;-81
2021/11/16 07:30:13;;;;;;;32.83;23.77;;;12.10;99.90;;;;;;6179854;23;20005;-82
2021/11/16 07:32:57;;;;;;;33.53;24.75;;;12.10;99.90;;;;;;6179241;23;20008;-81
2021/11/16 07:35:34;;;;;;;40.35;26.33;;;12.20;99.90;;;;;;6180118;23;20005;-80
2021/11/16 07:38:07;;;;;;;34.05;24.83;;;12.20;99.90;;;;;;6181229;23;20058;-81
2021/11/16 07:40:34;;;;;;;37.10;25.45;;;12.30;99.90;;;;;;6180574;23;20023;-80
2021/11/16 07:43:03;;;;;;;33.35;22.65;;;12.30;99.90;;;;;;6179705;23;20032;-82
2021/11/16 07:45:34;;;;;;;38.80;25.30;;;12.30;99.90;;;;;;6177071;23;20028;-81
2021/11/16 07:48:01;;;;;;;36.08;26.00;;;12.30;99.90;;;;;;6179626;23;20001;-79
2021/11/16 07:50:30;;;;;;;41.00;26.42;;;12.30;99.90;;;;;;6178603;23;20455;-80
2021/11/16 07:53:20;;;;;;;36.92;26.27;;;12.30;99.90;;;;;;6177623;23;20013;-81
2021/11/16 07:55:57;;;;;;;42.90;26.15;;;12.30;99.90;;;;;;6177325;23;19997;-81
2021/11/16 07:58:30;;;;;;;38.38;26.20;;;12.30;99.90;;;;;;6180456;23;20048;-80
2021/11/16 08:00:58;;;;;;;35.38;24.35;;;12.30;99.90;;;;;;6180529;23;20389;-80
2021/11/16 08:03:26;;;;;;;40.58;27.65;;;12.20;99.90;;;;;;6180306;23;19997;-80
2021/11/16 08:13:50;;;;;;;39.30;25.88;;;12.30;99.90;;;;;;6182397;23;20011;-81
2021/11/16 16:10:01;;;;;;;31.38;21.00;;;11.60;99.90;;;;;;6153175;22;1374254;-78
2021/11/16 16:12:27;;;;;;;38.55;20.25;;;11.60;99.90;;;;;;6188333;23;20004;-77
2021/11/16 16:14:53;;;;;;;29.25;20.88;;;11.50;99.90;;;;;;6190158;23;20396;-79
2021/11/16 16:17:30;;;;;;;29.48;20.50;;;11.50;99.90;;;;;;6191276;23;20455;-74
2021/11/16 16:19:57;;;;;;;32.20;20.60;;;11.50;99.90;;;;;;6190864;23;20491;-76
2021/11/16 16:22:26;;;;;;;33.65;21.77;;;11.60;99.90;;;;;;6189120;23;20008;-76
2021/11/16 16:24:53;;;;;;;26.25;20.75;;;11.60;99.90;;;;;;6187299;23;20005;-76
2021/11/16 16:27:19;;;;;;;27.73;22.25;;;11.50;99.90;;;;;;6189190;23;20001;-75
2021/11/16 16:29:46;;;;;;;29.35;21.00;;;11.50;99.90;;;;;;6189979;23;20051;-79
2021/11/16 16:32:12;;;;;;;28.27;20.90;;;11.50;99.90;;;;;;6188722;23;20497;-75
2021/11/16 16:34:38;;;;;;;27.45;18.83;;;11.40;99.90;;;;;;6198707;23;20024;-80
2021/11/16 16:37:05;;;;;;;28.00;21.38;;;11.40;99.90;;;;;;6191314;23;20005;-76
2021/11/16 16:39:32;;;;;;;30.20;20.52;;;11.50;99.90;;;;;;6191650;23;20041;-77
2021/11/16 16:41:59;;;;;;;29.02;20.85;;;11.50;99.90;;;;;;6191268;23;20001;-77
2021/11/16 16:44:25;;;;;;;28.42;20.38;;;11.50;99.90;;;;;;6191894;23;20001;-78
2021/11/16 16:46:54;;;;;;;29.50;21.90;;;11.50;99.90;;;;;;6190736;23;20001;-78
2021/11/16 16:49:21;;;;;;;27.70;20.02;;;11.50;99.90;;;;;;6191620;23;20016;-77
2021/11/16 16:51:47;;;;;;;30.75;21.25;;;11.50;99.90;;;;;;6190624;23;20035;-76
2021/11/16 16:54:15;;;;;;;31.67;21.25;;;11.50;99.90;;;;;;6191419;23;20063;-75
2021/11/16 16:56:43;;;;;;;30.05;23.02;;;11.50;99.90;;;;;;6190910;23;20012;-77
2021/11/16 16:59:11;;;;;;;27.05;21.02;;;11.50;99.90;;;;;;6185369;23;20008;-77
2021/11/16 17:01:43;;;;;;;33.13;21.95;;;11.50;99.90;;;;;;6190764;23;20008;-78
2021/11/16 17:04:10;;;;;;;30.48;21.92;;;11.40;99.90;;;;;;6191015;23;20368;-76
2021/11/16 17:06:37;;;;;;;27.67;20.23;;;11.30;99.90;;;;;;6186838;23;20053;-76
2021/11/16 17:09:04;;;;;;;26.98;18.02;;;11.20;99.90;;;;;;6196841;23;20012;-76
2021/11/16 17:11:31;;;;;;;32.05;20.08;;;11.20;99.90;;;;;;6187210;23;20012;-76
2021/11/16 17:13:57;;;;;;;31.45;22.15;;;11.20;99.90;;;;;;6214632;23;20035;-76
2021/11/16 17:16:27;;;;;;;28.70;20.45;;;11.20;99.90;;;;;;6213567;23;20008;-76
2021/11/16 17:18:56;;;;;;;29.95;18.45;;;11.20;99.90;;;;;;6214548;23;20076;-75
2021/11/16 17:21:25;;;;;;;29.35;20.23;;;11.30;99.90;;;;;;6187362;23;20016;-75
2021/11/16 17:23:53;;;;;;;26.17;19.80;;;11.30;99.90;;;;;;6187593;23;20004;-76
2021/11/16 17:26:19;;;;;;;28.20;21.73;;;11.30;99.90;;;;;;6213916;23;20008;-76
2021/11/16 17:28:45;;;;;;;32.88;20.75;;;11.30;99.90;;;;;;6187553;23;20139;-76
2021/11/16 17:31:13;;;;;;;34.47;21.80;;;11.40;99.90;;;;;;6213709;23;20031;-74
2021/11/16 17:33:39;;;;;;;34.25;21.13;;;11.40;99.90;;;;;;6213657;23;20359;-76
2021/11/16 17:36:06;;;;;;;28.98;20.17;;;11.40;99.90;;;;;;6213665;23;20058;-77
2021/11/16 17:38:33;;;;;;;32.05;21.73;;;11.40;99.90;;;;;;6213482;23;20001;-76
2021/11/16 17:41:00;;;;;;;28.75;21.52;;;11.40;99.90;;;;;;6213663;23;20433;-76
2021/11/16 17:43:26;;;;;;;37.22;21.83;;;11.40;99.90;;;;;;6187727;23;19997;-77
2021/11/16 17:45:52;;;;;;;33.03;21.00;;;11.30;99.90;;;;;;6213532;23;20012;-77
2021/11/16 17:48:18;;;;;;;25.83;19.90;;;11.30;99.90;;;;;;6187155;23;20709;-76
2021/11/16 17:50:44;;;;;;;31.42;21.25;;;11.30;99.90;;;;;;6186624;23;20083;-76
2021/11/16 17:53:10;;;;;;;29.27;19.20;;;11.20;99.90;;;;;;6213371;23;20429;-76
2021/11/16 17:55:37;;;;;;;28.98;19.33;;;11.20;99.90;;;;;;6213069;23;20015;-77
2021/11/16 17:58:04;;;;;;;25.35;18.95;;;11.10;99.90;;;;;;6213495;23;19997;-75
2021/11/16 18:00:31;;;;;;;23.58;16.90;;;11.10;99.90;;;;;;6211469;23;20012;-78
2021/11/16 18:02:59;;;;;;;24.63;18.30;;;11.00;99.90;;;;;;6213165;23;20011;-73
2021/11/16 18:07:59;;;;;;;32.83;18.60;;;11.10;99.90;;;;;;6217197;23;20007;-76
2021/11/16 18:10:27;;;;;;;27.90;18.92;;;11.20;99.90;;;;;;6212764;23;20023;-76
2021/11/16 18:12:53;;;;;;;31.88;19.83;;;11.20;99.90;;;;;;6213656;23;20428;-74
2021/11/16 18:15:20;;;;;;;26.10;18.42;;;11.20;99.90;;;;;;6210844;23;20007;-76
2021/11/16 18:17:46;;;;;;;27.30;18.02;;;11.20;99.90;;;;;;6212045;23;20066;-75
2021/11/16 18:20:13;;;;;;;26.83;18.48;;;11.20;99.90;;;;;;6212192;23;20004;-79
2021/11/16 18:22:39;;;;;;;26.77;19.08;;;11.20;99.90;;;;;;6213673;23;20003;-75
2021/11/16 18:25:06;;;;;;;28.33;18.27;;;11.20;99.90;;;;;;6213533;23;20040;-75
2021/11/16 18:27:36;;;;;;;26.50;17.92;;;11.30;99.90;;;;;;6213517;23;20004;-74
2021/11/16 18:30:04;;;;;;;26.55;18.42;;;11.30;99.90;;;;;;6213711;23;20008;-75
2021/11/16 18:32:31;;;;;;;25.73;17.88;;;11.30;99.90;;;;;;6213454;23;20079;-76
2021/11/16 18:34:59;;;;;;;24.05;17.17;;;11.30;99.90;;;;;;6213235;23;20044;-76
2021/11/16 18:37:25;;;;;;;24.85;18.25;;;11.30;99.90;;;;;;6213454;23;20054;-74
2021/11/16 18:39:52;;;;;;;24.17;17.88;;;11.30;99.90;;;;;;6213302;23;20067;-75
2021/11/16 18:42:28;;;;;;;30.88;18.23;;;11.30;99.90;;;;;;6213729;23;20074;-75
2021/11/16 18:45:29;;;;;;;25.95;17.42;;;11.30;99.90;;;;;;6186981;23;20312;-74
2021/11/16 18:47:50;;;;;;;26.60;17.13;;;11.20;99.90;;;;;;6208795;23;20028;-74
2021/11/16 18:50:19;;;;;;;28.17;18.95;;;11.20;99.90;;;;;;6213188;23;20028;-75
2021/11/16 18:52:45;;;;;;;27.35;17.25;;;11.20;99.90;;;;;;6213167;23;20009;-75
2021/11/16 18:55:17;;;;;;;26.42;18.35;;;11.20;99.90;;;;;;6186577;23;20009;-79
2021/11/16 18:57:43;;;;;;;32.77;20.20;;;11.20;99.90;;;;;;6186996;23;20644;-73
2021/11/16 19:00:10;;;;;;;23.60;16.23;;;11.30;99.90;;;;;;6211852;23;20336;-78
2021/11/16 19:02:36;;;;;;;25.88;17.55;;;11.20;99.90;;;;;;6186169;23;20585;-77
2021/11/16 19:05:03;;;;;;;23.75;17.58;;;11.20;99.90;;;;;;6186711;23;20087;-76
2021/11/16 19:07:29;;;;;;;23.63;15.95;;;11.20;99.90;;;;;;6213357;23;19989;-76
2021/11/16 19:09:55;;;;;;;20.58;16.80;;;11.20;99.90;;;;;;6212856;23;20084;-77
2021/11/16 19:12:21;;;;;;;23.38;17.40;;;11.30;99.90;;;;;;6213161;23;20004;-76
2021/11/16 19:14:49;;;;;;;29.45;18.42;;;11.30;99.90;;;;;;6213297;23;20104;-76
2021/11/16 19:17:18;;;;;;;31.50;19.55;;;11.30;99.90;;;;;;6213298;23;20001;-77
2021/11/16 19:19:47;;;;;;;22.67;16.88;;;11.30;99.90;;;;;;6212718;23;20000;-81
2021/11/16 19:22:16;;;;;;;22.00;16.63;;;11.30;99.90;;;;;;6211177;23;20039;-77
2021/11/16 19:24:55;;;;;;;23.95;17.65;;;11.20;99.90;;;;;;6211510;23;20082;-77
2021/11/16 19:27:21;;;;;;;20.70;14.55;;;11.20;99.90;;;;;;6212054;23;20443;-77
2021/11/16 19:29:54;;;;;;;24.13;17.45;;;11.20;99.90;;;;;;6213335;23;20000;-78
2021/11/16 19:32:22;;;;;;;24.85;16.75;;;11.20;99.90;;;;;;6210000;23;20015;-78
2021/11/16 19:34:51;;;;;;;25.25;17.60;;;11.20;99.90;;;;;;6183618;23;20063;-75
2021/11/16 19:37:26;;;;;;;27.88;18.85;;;11.20;99.90;;;;;;6210234;23;20061;-77
2021/11/16 19:39:59;;;;;;;25.23;17.08;;;11.20;99.90;;;;;;6183269;23;20012;-77
2021/11/16 19:42:28;;;;;;;26.27;16.98;;;11.20;99.90;;;;;;6210241;23;20083;-76
2021/11/16 19:44:55;;;;;;;22.45;16.33;;;11.30;99.90;;;;;;6209818;23;20001;-76
2021/11/16 19:47:21;;;;;;;20.98;15.30;;;11.20;99.90;;;;;;6209336;23;20011;-78
2021/11/16 19:49:47;;;;;;;23.75;15.52;;;11.30;99.90;;;;;;6206669;23;20336;-77
2021/11/16 19:52:13;;;;;;;21.38;15.88;;;11.30;99.90;;;;;;6208032;23;20007;-77
2021/11/16 19:54:39;;;;;;;23.40;16.55;;;11.30;99.90;;;;;;6208322;23;20051;-77
2021/11/16 19:57:07;;;;;;;24.27;16.88;;;11.30;99.90;;;;;;6207326;23;20466;-77
2021/11/16 19:59:33;;;;;;;19.85;15.43;;;11.30;99.90;;;;;;6207971;23;20005;-77
2021/11/16 20:01:59;;;;;;;20.15;16.02;;;11.30;99.90;;;;;;6177106;23;20016;-79
2021/11/16 20:04:27;;;;;;;24.77;15.90;;;11.30;99.90;;;;;;6183407;23;20620;-78
2021/11/16 20:06:53;;;;;;;21.40;15.40;;;11.30;99.90;;;;;;6209856;23;20462;-78
2021/11/16 20:09:19;;;;;;;22.50;15.45;;;11.40;99.90;;;;;;6183520;23;20020;-78
2021/11/16 20:11:44;;;;;;;23.08;16.48;;;11.40;99.90;;;;;;6209813;23;20656;-78
2021/11/16 20:14:11;;;;;;;22.15;16.42;;;11.40;99.90;;;;;;6210204;23;20132;-78
2021/11/16 20:16:38;;;;;;;22.63;16.35;;;11.40;99.90;;;;;;6210002;23;20051;-76
2021/11/16 20:19:05;;;;;;;21.23;16.25;;;11.30;99.90;;;;;;6210128;23;20004;-78
2021/11/16 20:21:32;;;;;;;23.15;15.70;;;11.40;99.90;;;;;;6183124;23;20055;-77
2021/11/16 20:23:59;;;;;;;24.15;15.90;;;11.40;99.90;;;;;;6209478;23;20036;-77
2021/11/16 20:26:25;;;;;;;24.95;15.65;;;11.40;99.90;;;;;;6209968;23;20039;-78
2021/11/16 20:28:55;;;;;;;18.55;14.20;;;11.40;99.90;;;;;;6210457;23;20009;-77
2021/11/16 20:31:27;;;;;;;19.85;14.85;;;11.40;99.90;;;;;;6208131;23;20012;-78
2021/11/16 20:34:00;;;;;;;21.42;14.27;;;11.40;99.90;;;;;;6209625;23;20005;-77
2021/11/16 20:36:27;;;;;;;19.50;14.02;;;11.50;99.90;;;;;;6209673;23;20104;-78
2021/11/16 20:39:14;;;;;;;17.50;13.57;;;11.50;99.90;;;;;;6210217;23;20335;-77
2021/11/16 21:00:48;;;;;;;23.00;13.15;;;11.50;99.90;;;;;;6211700;23;20011;-78
2021/11/16 21:03:13;;;;;;;21.83;13.95;;;11.50;99.90;;;;;;6211778;23;20075;-75
2021/11/16 21:05:39;;;;;;;19.83;12.13;;;11.60;99.90;;;;;;6211581;23;20032;-76